• Join FlightAware (Why Join?)
  • Login
  • US Flag 
05:10AM EDT


 

Airport Tracker/Info


-or-


 

Live Flight TrackerFlight Track Log ✈ EJA312 ✈ 20-Oct-2013 ✈ KCMX - KDAL

Flight Track Log - Related Links

Times and Time Zones

All times are in EDT time to prevent confusion due to time zone crossing. See the EJA312 flight status page for this flight to view local times or setup timezone preferences in your user account.

Time Position Orientation Groundspeed Altitude Reporting Facility
EDT Latitude Longitude Course Direction KTS MPH feet Rate Location/Type
08:30AM 47.1508 -88.5656 203° Southwest 263 303 5,500  Level Minneapolis Center
08:31AM 47.0764 -88.6128 203° Southwest 288 331 9,800 5,100 Climbing Minneapolis Center
08:32AM 47.0006 -88.6528 200° South 289 333 15,900 4,800 Climbing Minneapolis Center
08:33AM 46.9278 -88.6969 203° Southwest 285 328 19,600 3,240 Climbing Minneapolis Center
08:34AM 46.8514 -88.7439 203° Southwest 293 337 22,500 2,760 Climbing Minneapolis Center
08:35AM 46.7717 -88.7911 202° Southwest 304 350 25,200 2,520 Climbing Minneapolis Center
08:36AM 46.6908 -88.8403 203° Southwest 313 360 27,700 2,280 Climbing Minneapolis Center
08:37AM 46.6064 -88.8894 202° Southwest 323 372 29,900 1,980 Climbing Minneapolis Center
08:38AM 46.5219 -88.9411 203° Southwest 328 377 31,800 1,620 Climbing Minneapolis Center
08:39AM 46.4336 -88.9925 202° Southwest 337 388 33,300 1,500 Climbing Minneapolis Center
08:40AM 46.3372 -89.0478 202° Southwest 345 397 34,900 1,740 Climbing Minneapolis Center
08:41AM 46.2453 -89.1025 202° Southwest 350 403 36,900 1,440 Climbing Minneapolis Center
08:42AM 46.1547 -89.1564 202° Southwest 353 406 37,900 900 Climbing Minneapolis Center
08:43AM 46.0689 -89.2053 202° Southwest 348 400 38,800 840 Climbing Minneapolis Center
08:44AM 45.9800 -89.2578 202° Southwest 347 399 39,700 840 Climbing Minneapolis Center
08:45AM 45.8892 -89.3094 202° Southwest 349 402 40,500 600 Climbing Minneapolis Center
08:46AM 45.7978 -89.3639 203° Southwest 351 404 41,000 240 Climbing Minneapolis Center
08:47AM 45.6833 -89.4283 201° Southwest 363 418 41,000  Level Minneapolis Center
08:48AM 45.5956 -89.4653 196° South 389 448 41,000  Level Minneapolis Center
08:49AM 45.4825 -89.4797 185° South 408 470 41,000  Level Minneapolis Center
08:50AM 45.3431 -89.5011 186° South 419 482 41,000  Level Minneapolis Center
08:51AM 45.2264 -89.5181 186° South 422 486 41,000  Level Minneapolis Center
08:52AM 45.1097 -89.5361 186° South 421 484 41,000  Level Minneapolis Center
08:53AM 44.9989 -89.5528 186° South 421 484 41,000  Level Minneapolis Center
08:54AM 44.8833 -89.5697 186° South 421 484 41,000  Level Minneapolis Center
08:55AM 44.7681 -89.5878 186° South 418 481 41,000  Level Minneapolis Center
08:56AM 44.6528 -89.6044 186° South 418 481 41,000  Level Minneapolis Center
08:57AM 44.5372 -89.6219 186° South 418 481 41,000  Level Minneapolis Center
08:58AM 44.3961 -89.6439 186° South 425 489 41,000  Level Minneapolis Center
08:59AM 44.2778 -89.6606 186° South 430 495 41,000  Level Minneapolis Center
09:01AM 44.1578 -89.6778 186° South 434 499 41,000  Level Minneapolis Center
09:01AM 44.0639 -89.6903 185° South 433 498 41,000  Level Chicago Center
09:02AM 43.9453 -89.7078 186° South 431 496 41,000  Level Chicago Center
09:03AM 43.8283 -89.7256 186° South 428 493 41,000  Level Chicago Center
09:04AM 43.7119 -89.7431 186° South 425 489 41,000  Level Chicago Center
09:05AM 43.5964 -89.7578 185° South 420 483 41,000  Level Chicago Center
09:06AM 43.4617 -89.8011 193° South 419 482 41,000  Level Chicago Center
09:08AM 43.3531 -89.8431 196° South 410 472 41,000  Level Chicago Center
09:09AM 43.2444 -89.8881 197° South 411 473 41,000  Level Chicago Center
09:10AM 43.1344 -89.9317 196° South 412 474 41,000  Level Chicago Center
09:13AM 42.7244 -90.1810 196° South 405 466 41,000  Level FlightAware ADS-B
09:15AM 42.6047 -90.2569 196° South 405 466 41,000  Level Chicago Center
09:16AM 42.5031 -90.3203 205° Southwest 405 466 41,000  Level Chicago Center
09:17AM 42.3992 -90.3836 204° Southwest 408 470 41,000  Level Chicago Center
09:18AM 42.2961 -90.4481 205° Southwest 410 472 41,000  Level Chicago Center
09:19AM 42.1933 -90.5103 204° Southwest 407 468 41,000  Level Chicago Center
09:20AM 42.0903 -90.5744 205° Southwest 409 471 41,000  Level Chicago Center
09:21AM 41.9656 -90.6522 205° Southwest 413 475 41,000  Level Chicago Center
09:24AM 41.6018 -90.8712 205° Southwest 405 466 41,000  Level FlightAware ADS-B
09:26AM 41.4099 -90.9863 204° Southwest 404 465 41,000  Level FlightAware ADS-B
09:28AM 41.2196 -91.1001 204° Southwest 404 465 41,000  Level FlightAware ADS-B
09:29AM 41.1344 -91.1511 204° Southwest 404 465 41,000  Level Kansas City Center
09:30AM 41.0317 -91.2125 204° Southwest 405 466 41,000  Level Kansas City Center
09:31AM 40.9289 -91.2719 204° Southwest 405 466 41,000  Level Kansas City Center
09:32AM 40.8275 -91.3292 203° Southwest 410 472 41,000  Level Kansas City Center
09:33AM 40.7256 -91.3911 205° Southwest 408 470 41,000  Level Kansas City Center
09:34AM 40.6022 -91.4628 204° Southwest 406 467 41,000  Level Kansas City Center
09:35AM 40.4989 -91.5222 204° Southwest 407 468 41,000  Level Kansas City Center
09:36AM 40.3967 -91.5814 204° Southwest 405 466 41,000  Level Kansas City Center
09:37AM 40.2942 -91.6403 204° Southwest 404 465 41,000  Level Kansas City Center
09:38AM 40.1928 -91.6997 204° Southwest 401 461 41,000  Level Kansas City Center
09:39AM 40.0914 -91.7578 204° Southwest 401 461 41,000  Level Kansas City Center
09:40AM 39.9903 -91.8167 204° Southwest 398 458 41,000  Level Kansas City Center
09:41AM 39.8897 -91.8742 204° Southwest 398 458 41,000  Level Kansas City Center
09:42AM 39.7867 -91.9319 203° Southwest 399 459 41,000  Level Kansas City Center
09:43AM 39.6658 -92.0014 204° Southwest 399 459 41,000  Level Kansas City Center
09:44AM 39.5669 -92.0558 203° Southwest 392 451 41,000  Level Kansas City Center
09:45AM 39.4656 -92.1125 203° Southwest 395 455 41,000  Level Kansas City Center
09:46AM 39.3647 -92.1703 204° Southwest 397 457 41,000  Level Kansas City Center
09:47AM 39.2639 -92.2250 203° Southwest 395 455 41,000  Level Kansas City Center
09:48AM 39.1467 -92.2903 203° Southwest 395 455 41,000  Level Kansas City Center
09:49AM 39.0450 -92.3489 204° Southwest 397 457 41,000  Level Kansas City Center
09:50AM 38.9442 -92.4047 203° Southwest 395 455 41,000  Level Kansas City Center
09:51AM 38.8436 -92.4611 204° Southwest 394 453 41,000  Level Kansas City Center
09:53AM 38.7419 -92.5164 203° Southwest 394 453 41,000  Level Kansas City Center
09:54AM 38.6428 -92.5722 204° Southwest 392 451 41,000  Level Kansas City Center
09:55AM 38.5425 -92.6275 203° Southwest 392 451 41,000  Level Kansas City Center
09:56AM 38.4428 -92.6808 203° Southwest 391 450 41,000  Level Kansas City Center
09:57AM 38.3244 -92.7450 203° Southwest 389 448 41,000  Level Kansas City Center
09:58AM 38.2258 -92.7989 203° Southwest 387 445 41,000  Level Kansas City Center
09:59AM 38.1269 -92.8517 203° Southwest 387 445 41,000  Level Kansas City Center
10:00AM 38.0275 -92.9056 203° Southwest 388 447 41,000  Level Kansas City Center
10:01AM 37.9281 -92.9583 203° Southwest 388 447 41,000  Level Kansas City Center
10:02AM 37.8289 -93.0114 203° Southwest 388 447 41,000  Level Kansas City Center
10:03AM 37.7300 -93.0642 203° Southwest 387 445 41,000  Level Kansas City Center
10:04AM 37.6100 -93.1269 203° Southwest 388 447 41,000  Level Kansas City Center
10:05AM 37.5100 -93.1803 203° Southwest 388 447 41,000  Level Kansas City Center
10:06AM 37.4108 -93.2331 203° Southwest 387 445 41,000  Level Kansas City Center
10:07AM 37.3089 -93.2856 202° Southwest 391 450 41,000  Level Kansas City Center
10:08AM 37.2083 -93.3364 202° Southwest 389 448 41,000  Level Kansas City Center
10:09AM 37.1092 -93.3900 203° Southwest 388 447 41,000  Level Kansas City Center
10:10AM 37.0103 -93.4414 203° Southwest 384 442 41,000  Level Kansas City Center
10:11AM 36.9125 -93.4947 204° Southwest 382 440 41,000  Level Kansas City Center
10:12AM 36.8089 -93.5467 202° Southwest 385 443 41,000  Level Kansas City Center
10:13AM 36.7119 -93.5978 203° Southwest 383 441 41,000  Level Kansas City Center
10:14AM 36.5953 -93.6572 202° Southwest 380 437 41,000  Level Kansas City Center
10:15AM 36.4986 -93.7078 203° Southwest 379 436 41,000  Level Kansas City Center
10:16AM 36.4022 -93.7578 203° Southwest 377 434 41,000  Level Kansas City Center
10:17AM 36.3031 -93.8086 202° Southwest 382 440 41,000  Level Kansas City Center
10:18AM 36.2058 -93.8586 203° Southwest 381 438 41,000  Level Kansas City Center
10:19AM 36.1083 -93.9083 202° Southwest 381 438 41,000  Level Kansas City Center
10:20AM 36.0103 -93.9592 203° Southwest 382 440 41,000  Level Kansas City Center
10:21AM 35.8942 -94.0175 202° Southwest 380 437 41,000  Level Kansas City Center
10:22AM 35.7961 -94.0658 202° Southwest 380 437 41,000  Level Kansas City Center
10:23AM 35.6978 -94.1161 203° Southwest 381 438 41,000  Level Kansas City Center
10:25AM 35.5592 -94.1858 202° Southwest 382 440 41,000  Level Memphis Center
10:26AM 35.4611 -94.2353 202° Southwest 381 438 41,000  Level Memphis Center
10:27AM 35.3664 -94.2931 206° Southwest 385 443 41,000  Level Memphis Center
10:28AM 35.2928 -94.3764 223° Southwest 366 421 41,000 -120 Level Memphis Center
10:29AM 35.2183 -94.4572 222° Southwest 361 415 40,800 -540 Descending Memphis Center
10:30AM 35.1292 -94.5531 221° Southwest 358 412 40,000 -1,020 Descending Memphis Center
10:31AM 35.0556 -94.6333 222° Southwest 357 411 38,700 -1,020 Descending Memphis Center
10:32AM 34.9842 -94.7119 222° Southwest 356 410 38,000 -360 Descending Memphis Center
10:33AM 34.9069 -94.7925 221° Southwest 361 415 38,000  Level Memphis Center
10:34AM 34.7944 -94.8375 198° South 386 444 38,000  Level Memphis Center
10:35AM 34.6922 -94.8772 198° South 384 442 38,000  Level Memphis Center
10:36AM 34.5889 -94.9214 199° South 382 440 38,000 -300 Level Fort Worth Center
10:37AM 34.4894 -94.9544 195° South 376 433 37,500 -900 Descending Fort Worth Center
10:38AM 34.3922 -94.9975 200° South 376 433 36,300 -1,320 Descending Fort Worth Center
10:39AM 34.2844 -95.0408 198° South 388 447 35,000 -960 Descending Fort Worth Center
10:40AM 34.1850 -95.0786 197° South 388 447 34,400 -720 Descending Fort Worth Center
10:41AM 34.0794 -95.1217 199° South 393 452 33,600 -1,080 Descending Fort Worth Center
10:42AM 33.9717 -95.1669 199° South 403 464 32,300 -1,440 Descending Fort Worth Center
10:43AM 33.8642 -95.2147 200° South 403 464 30,800 -1,680 Descending Fort Worth Center
10:44AM 33.7544 -95.2675 202° Southwest 413 475 29,000 -1,920 Descending Fort Worth Center
10:45AM 33.6467 -95.3225 203° Southwest 419 482 27,100 -1,920 Descending Fort Worth Center
10:46AM 33.5392 -95.3847 206° Southwest 419 482 25,200 -1,560 Descending Fort Worth Center
10:47AM 33.4847 -95.5031 241° Southwest 397 457 24,000 -1,980 Descending Fort Worth Center
10:48AM 33.4533 -95.6458 255° West 383 441 21,300 -2,460 Descending Fort Worth Center
10:49AM 33.4217 -95.7658 252° West 390 449 19,100 -2,160 Descending Fort Worth Center
10:50AM 33.3897 -95.8808 252° West 376 433 17,000 -2,040 Descending Fort Worth Center
10:51AM 33.3597 -95.9958 253° West 370 426 15,100 -2,040 Descending Fort Worth Center
10:52AM 33.3256 -96.1083 250° West 364 419 13,000 -1,980 Descending Fort Worth Center
10:53AM 33.2972 -96.2131 252° West 349 402 11,200 -1,800 Descending Fort Worth Center
10:54AM 33.2711 -96.3053 251° West 315 362 9,500 -1,620 Descending Fort Worth Center
10:56AM 33.2000 -96.4333 236° Southwest 257 296 6,500 -1,560 Descending Dallas / Fort Worth TRACON
10:57AM 33.1667 -96.5000 239° Southwest 238 274 5,100 -840 Descending Dallas / Fort Worth TRACON
10:58AM 33.1167 -96.5667 228° Southwest 240 276 5,000 -60 Descending Dallas / Fort Worth TRACON
10:59AM 33.0833 -96.6333 239° Southwest 262 302 5,000  Level Dallas / Fort Worth TRACON
11:00AM 33.0333 -96.7000 228° Southwest 257 296 5,000 -660 Level Dallas / Fort Worth TRACON
11:01AM 33.0000 -96.7667 239° Southwest 229 264 3,700 -960 Descending Dallas / Fort Worth TRACON
11:02AM 32.9500 -96.8333 228° Southwest 243 280 3,000 -900 Descending Dallas / Fort Worth TRACON
11:03AM 32.9167 -96.8833 232° Southwest 195 224 2,000 -780 Descending Dallas / Fort Worth TRACON
11:04AM 32.8833 -96.8833 180° South 144 166 1,500 -660 Descending Dallas / Fort Worth TRACON
11:05AM 32.8667 -96.8667 140° Southeast 110 127 800 -780 Descending Dallas / Fort Worth TRACON
11:08AM 32.8471 -96.8518 North  Level Estimated
11:15AM 32.8471 -96.8518 North  Level Estimated